map of KRPJ home
KRPJ - Airport
Location
City:  Rochelle, Illinois, United States
Name:Rochelle Municipal-Koritz Field
ICAO:KRPJ
FAA LID:RPJ

Details
Type:Airport (Airfield)
Use:Public/Civil
Latitude:4153'34"N (41.892639)
Longitude:8904'47"W (-89.079610)
Datum:WGS 1984
Elevation:780 ft (238 m)
Variation:2.86W (WMM2015 magnetic declination)
-0.07 annual change
Runways:1
Longest:5001 × 75 ft (1524 × 23 m), paved

Time
Time Zone:UTC-6 (DST-5)
Local Time:

Weather
METAR:KRPJ 170635Z AUTO 09009KT 10SM OVC026 M03/M05 A3020 RMK AO2 T10271053

Related Locations
Nearby:
Farthest:YAUG: 11027 mi / 17746 km
Augusta [Augusta Airport], WA, AU

Find:

   beyond  
but within

Other Information
Maps:
NOTAMs:
Links:
Sources:

  
  • flag of United States
  • flag of Illinois
  

Sectional Chart

Flight Planning
at skyvector.com

Satellite Image

Google Maps Satellite view

 

Copyright © 2004-2019 Karl L. Swartz. All rights reserved.
The Great Circle Mapper name and logo are trademarks of the Great Circle Mapper.
All other trademarks mentioned herein belong to their respective owners.
Please see credits for attibutions and further copyright information.

  Follow gcmap on Facebook Follow gcmap on Twitter Follow gcmap on Google+ GCmap on LinkedIn

hCard Microformat

Geo Microformat